Time;durP1;ratioP1;P1;durP2;ratioP2;P2;SDS_P1;SDS_P2;PMS_P1;PMS_P2;Temp;Humidity;BMP_temperature;BMP_pressure;BME280_temperature;BME280_humidity;BME280_pressure;Samples;Min_cycle;Max_cycle;Signal;HPM_P1;HPM_P2
2021/03/19 00:08:16;;;;;;;0.20;0.10;;;7.00;99.90;;;;;;20452566;28;20599;-72
2021/03/19 00:18:18;;;;;;;0.20;0.10;;;7.10;99.90;;;;;;20477703;28;20672;-72
2021/03/19 00:28:22;;;;;;;0.20;0.10;;;7.30;99.90;;;;;;20542555;28;20270;-73
2021/03/19 00:38:25;;;;;;;0.20;0.10;;;7.50;99.90;;;;;;20543174;28;20391;-73
2021/03/19 00:48:28;;;;;;;0.20;0.20;;;7.70;99.90;;;;;;20540599;28;20447;-71
2021/03/19 00:58:33;;;;;;;0.20;0.10;;;7.70;99.90;;;;;;20540890;28;20234;-71
2021/03/19 01:08:36;;;;;;;1.60;0.50;;;7.50;99.90;;;;;;20562027;23;20325;-71
2021/03/19 01:18:39;;;;;;;0.20;0.10;;;7.30;99.90;;;;;;20539610;28;20684;-71
2021/03/19 01:28:50;;;;;;;0.20;0.20;;;7.10;99.90;;;;;;20538505;28;20315;-71
2021/03/19 01:38:58;;;;;;;0.20;0.10;;;7.10;99.90;;;;;;20538853;28;20196;-70
2021/03/19 01:49:38;;;;;;;0.20;0.10;;;7.10;99.90;;;;;;20538150;28;20239;-71
2021/03/19 02:00:18;;;;;;;0.20;0.10;;;7.10;99.90;;;;;;20549674;23;20228;-72
2021/03/19 02:10:58;;;;;;;0.20;0.10;;;7.20;99.90;;;;;;20535449;28;20231;-72
2021/03/19 02:21:38;;;;;;;0.20;0.10;;;7.30;99.90;;;;;;20535193;28;20742;-73
2021/03/19 02:32:03;;;;;;;0.20;0.10;;;7.40;99.90;;;;;;20530547;28;20236;-73
2021/03/19 02:42:07;;;;;;;0.20;0.10;;;7.40;99.90;;;;;;20530856;28;20258;-73
2021/03/19 02:52:11;;;;;;;0.20;0.10;;;7.40;99.90;;;;;;20532569;28;20587;-73
2021/03/19 03:02:13;;;;;;;0.20;0.20;;;7.30;99.90;;;;;;20544377;23;20236;-70
2021/03/19 03:12:18;;;;;;;0.20;0.10;;;7.30;99.90;;;;;;20537229;28;20220;-71
2021/03/19 03:22:21;;;;;;;0.20;0.10;;;7.20;99.90;;;;;;20531474;28;20258;-70
2021/03/19 03:32:25;;;;;;;0.20;0.10;;;7.10;99.90;;;;;;20532415;28;20578;-70
2021/03/19 03:42:27;;;;;;;0.50;0.50;;;7.10;99.90;;;;;;20534486;28;20203;-69
2021/03/19 03:52:31;;;;;;;0.20;0.20;;;7.10;99.90;;;;;;20548261;28;20232;-71
2021/03/19 04:02:35;;;;;;;0.20;0.10;;;7.10;99.90;;;;;;20556960;23;20290;-71
2021/03/19 04:12:39;;;;;;;0.67;0.63;;;7.10;99.90;;;;;;20544294;28;20247;-72
2021/03/19 04:22:42;;;;;;;0.20;0.10;;;7.30;99.90;;;;;;20541755;28;20218;-72
2021/03/19 04:32:46;;;;;;;0.20;0.10;;;7.40;99.90;;;;;;20541882;28;20725;-73
2021/03/19 04:42:48;;;;;;;0.30;0.30;;;7.40;99.90;;;;;;20540582;28;20288;-71
2021/03/19 04:52:52;;;;;;;0.20;0.10;;;7.70;99.90;;;;;;20540740;28;20500;-72
2021/03/19 05:02:55;;;;;;;13.03;1.23;;;7.80;99.90;;;;;;20539350;28;20444;-71
2021/03/19 05:12:59;;;;;;;1.17;0.63;;;7.90;99.90;;;;;;20540902;28;20645;-73
2021/03/19 05:23:02;;;;;;;0.40;0.40;;;8.00;99.90;;;;;;20485251;28;20189;-72
2021/03/19 05:33:06;;;;;;;0.20;0.10;;;7.90;99.90;;;;;;20460002;28;20285;-72
2021/03/19 05:43:25;;;;;;;0.20;0.20;;;8.00;99.90;;;;;;20507132;28;20552;-74
2021/03/19 05:53:41;;;;;;;0.30;0.30;;;8.00;99.90;;;;;;20531917;28;20204;-74
2021/03/19 06:03:45;;;;;;;0.20;0.10;;;8.00;99.90;;;;;;20532863;28;20240;-74
2021/03/19 06:13:56;;;;;;;0.53;0.53;;;8.20;99.90;;;;;;20532987;28;20733;-72
2021/03/19 06:24:15;;;;;;;1.33;0.80;;;8.10;99.90;;;;;;20532129;28;20216;-72
2021/03/19 06:34:23;;;;;;;0.20;0.10;;;8.20;99.90;;;;;;20531857;28;20505;-73
2021/03/19 06:44:26;;;;;;;0.77;0.77;;;8.30;99.90;;;;;;20529553;28;20230;-72
2021/03/19 06:54:46;;;;;;;0.20;0.10;;;8.60;99.90;;;;;;20528301;28;20211;-74
2021/03/19 07:04:59;;;;;;;1.50;0.80;;;8.70;99.90;;;;;;20525548;28;20285;-73
2021/03/19 07:15:16;;;;;;;0.70;0.70;;;8.70;99.90;;;;;;20524615;28;20192;-73
2021/03/19 07:25:37;;;;;;;1.03;1.03;;;8.60;99.90;;;;;;20455297;28;20221;-73
2021/03/19 07:35:59;;;;;;;1.10;0.50;;;8.70;99.90;;;;;;20483285;28;20203;-72
2021/03/19 07:46:15;;;;;;;0.57;0.43;;;8.80;99.90;;;;;;20525405;28;20515;-71
2021/03/19 07:56:35;;;;;;;0.20;0.20;;;8.80;99.90;;;;;;20490664;28;20180;-73
2021/03/19 08:06:45;;;;;;;0.60;0.60;;;9.50;99.90;;;;;;20482697;28;20794;-71
2021/03/19 08:16:59;;;;;;;0.70;0.67;;;9.30;99.90;;;;;;20481928;28;21054;-73
2021/03/19 08:27:11;;;;;;;0.43;0.40;;;9.40;99.90;;;;;;20456644;28;20718;-72
2021/03/19 08:37:27;;;;;;;1.90;1.47;;;9.40;99.90;;;;;;20461510;28;20561;-73
2021/03/19 08:47:35;;;;;;;0.90;0.40;;;9.50;99.90;;;;;;20498482;28;20307;-72
2021/03/19 08:57:42;;;;;;;0.30;0.30;;;9.20;99.90;;;;;;20496280;28;20267;-74
2021/03/19 09:08:22;;;;;;;0.20;0.17;;;9.20;99.90;;;;;;20486823;28;20560;-73
2021/03/19 09:18:44;;;;;;;4.10;1.90;;;9.70;99.90;;;;;;20512569;28;20522;-74
2021/03/19 09:29:23;;;;;;;0.50;0.50;;;10.20;99.90;;;;;;20510500;28;20232;-71
2021/03/19 09:39:48;;;;;;;1.07;0.93;;;10.10;99.90;;;;;;20534032;28;20684;-72
2021/03/19 09:50:05;;;;;;;0.20;0.20;;;10.40;99.90;;;;;;20534198;28;20268;-72
2021/03/19 10:00:17;;;;;;;0.40;0.40;;;10.50;99.90;;;;;;20530002;28;20236;-72
2021/03/19 10:10:25;;;;;;;3.43;0.60;;;10.70;99.90;;;;;;20530304;28;20778;-70
2021/03/19 10:20:36;;;;;;;1.80;0.93;;;11.30;99.90;;;;;;20530774;28;20283;-71
2021/03/19 10:30:44;;;;;;;0.20;0.20;;;11.70;99.90;;;;;;20533060;28;20232;-72
2021/03/19 10:40:57;;;;;;;0.97;0.60;;;11.50;99.90;;;;;;20534123;28;20206;-72
2021/03/19 10:51:07;;;;;;;1.60;0.93;;;12.50;99.90;;;;;;20531926;28;20216;-71
2021/03/19 11:01:43;;;;;;;3.90;1.80;;;13.00;99.90;;;;;;20530785;28;20662;-70
2021/03/19 11:11:50;;;;;;;3.83;0.93;;;12.90;99.90;;;;;;20526926;28;20232;-72
2021/03/19 11:22:03;;;;;;;4.70;1.30;;;12.80;99.90;;;;;;20478443;28;20328;-71
2021/03/19 11:32:26;;;;;;;0.93;0.93;;;12.70;99.90;;;;;;20455808;28;20223;-70
2021/03/19 11:42:33;;;;;;;0.43;0.43;;;12.80;99.90;;;;;;20527900;28;20748;-74
2021/03/19 11:52:36;;;;;;;2.57;1.70;;;13.00;99.90;;;;;;20509569;28;20226;-70
2021/03/19 12:02:43;;;;;;;0.97;0.73;;;13.60;99.90;;;;;;20542203;28;20440;-72
2021/03/19 12:12:46;;;;;;;0.70;0.63;;;13.50;99.90;;;;;;20507943;28;20224;-69
2021/03/19 12:22:50;;;;;;;1.23;0.50;;;13.60;99.90;;;;;;20479163;28;20201;-72
2021/03/19 12:32:54;;;;;;;0.20;0.20;;;13.50;99.90;;;;;;20460503;28;20224;-73
2021/03/19 12:42:58;;;;;;;1.80;1.43;;;13.80;99.90;;;;;;20483706;28;20669;-71
2021/03/19 12:53:03;;;;;;;0.77;0.77;;;13.60;99.90;;;;;;20495570;28;20346;-74
2021/03/19 13:03:07;;;;;;;0.70;0.63;;;13.60;99.90;;;;;;20493486;28;20232;-73
2021/03/19 13:13:10;;;;;;;0.77;0.77;;;13.20;99.90;;;;;;20535795;28;20694;-72
2021/03/19 13:23:24;;;;;;;1.70;1.03;;;13.40;99.90;;;;;;20482038;28;20719;-75
2021/03/19 13:33:28;;;;;;;2.10;1.17;;;14.80;99.90;;;;;;20465346;28;20232;-73
2021/03/19 13:43:36;;;;;;;0.87;0.60;;;15.60;99.90;;;;;;20463078;28;20196;-81
2021/03/19 13:53:38;;;;;;;1.40;0.50;;;17.20;99.90;;;;;;20455923;28;20225;-75
2021/03/19 14:03:41;;;;;;;1.73;0.57;;;17.80;99.90;;;;;;20482123;28;20255;-73
2021/03/19 14:13:45;;;;;;;7.73;2.73;;;15.70;99.90;;;;;;20529584;28;20219;-72
2021/03/19 14:23:49;;;;;;;1.23;0.70;;;14.20;99.90;;;;;;20473978;28;20661;-72
2021/03/19 14:33:53;;;;;;;0.87;0.63;;;13.10;99.90;;;;;;20449444;28;20229;-73
2021/03/19 14:44:01;;;;;;;0.20;0.10;;;11.50;99.90;;;;;;20449152;28;20193;-74
2021/03/19 14:54:24;;;;;;;0.20;0.10;;;10.10;99.90;;;;;;20528224;28;20235;-72
2021/03/19 15:04:28;;;;;;;0.20;0.10;;;9.50;99.90;;;;;;20526260;28;20216;-73
2021/03/19 15:14:31;;;;;;;0.20;0.10;;;10.40;99.90;;;;;;20529222;28;20188;-71
2021/03/19 15:24:34;;;;;;;0.20;0.10;;;10.30;99.90;;;;;;20459370;28;20205;-73
2021/03/19 15:34:38;;;;;;;0.30;0.23;;;9.90;99.90;;;;;;20442717;29;20201;-71
2021/03/19 15:44:42;;;;;;;0.20;0.20;;;9.40;99.90;;;;;;20441446;28;20317;-72
2021/03/19 15:54:44;;;;;;;0.70;0.70;;;9.70;99.90;;;;;;20444687;28;20488;-75
2021/03/19 16:04:48;;;;;;;1.50;0.77;;;9.70;99.90;;;;;;20492147;28;20252;-73
2021/03/19 16:14:51;;;;;;;0.20;0.20;;;10.00;99.90;;;;;;20523070;28;20574;-71
2021/03/19 16:24:55;;;;;;;3.70;0.87;;;10.80;99.90;;;;;;20508789;28;20219;-72
2021/03/19 16:34:57;;;;;;;0.20;0.10;;;10.90;99.90;;;;;;20508708;28;20197;-71
2021/03/19 16:45:01;;;;;;;0.20;0.10;;;10.70;99.90;;;;;;20441090;28;20307;-71
2021/03/19 16:55:08;;;;;;;0.60;0.60;;;10.40;99.90;;;;;;20486006;28;20733;-71
2021/03/19 17:05:13;;;;;;;0.33;0.33;;;9.90;99.90;;;;;;20533846;28;20617;-73
2021/03/19 17:15:17;;;;;;;0.70;0.70;;;9.60;99.90;;;;;;20534440;28;20612;-78
2021/03/19 17:25:24;;;;;;;0.40;0.40;;;9.80;99.90;;;;;;20532927;28;20238;-72
2021/03/19 17:35:30;;;;;;;0.20;0.20;;;9.70;99.90;;;;;;20534355;28;20645;-78
2021/03/19 17:45:37;;;;;;;1.07;0.60;;;9.20;99.90;;;;;;20531403;28;20362;-77
2021/03/19 17:55:40;;;;;;;0.50;0.50;;;9.00;99.90;;;;;;20536182;28;20252;-74
2021/03/19 18:05:45;;;;;;;0.20;0.10;;;8.70;99.90;;;;;;20533699;28;20423;-76
2021/03/19 18:15:49;;;;;;;0.20;0.20;;;8.30;99.90;;;;;;20531252;28;20200;-76
2021/03/19 18:25:55;;;;;;;0.30;0.30;;;8.20;99.90;;;;;;20459236;28;20233;-74
2021/03/19 18:35:59;;;;;;;0.77;0.67;;;7.90;99.90;;;;;;20509735;23;20228;-75
2021/03/19 18:46:12;;;;;;;0.50;0.50;;;7.70;99.90;;;;;;20548202;23;20359;-72
2021/03/19 18:56:16;;;;;;;0.43;0.43;;;7.60;99.90;;;;;;20514958;28;20258;-75
2021/03/19 19:06:31;;;;;;;0.97;0.47;;;7.50;99.90;;;;;;20524599;23;20390;-72
2021/03/19 19:16:46;;;;;;;0.30;0.20;;;7.40;99.90;;;;;;20512031;28;20199;-75
2021/03/19 19:27:33;;;;;;;0.20;0.13;;;7.60;99.90;;;;;;20463294;23;20234;-82
2021/03/19 19:37:37;;;;;;;0.20;0.20;;;8.00;99.90;;;;;;20530469;28;20207;-73
2021/03/19 19:47:40;;;;;;;0.33;0.30;;;7.80;99.90;;;;;;20527040;28;20228;-72
2021/03/19 19:57:45;;;;;;;0.20;0.20;;;7.40;99.90;;;;;;20527141;28;20192;-73
2021/03/19 20:07:47;;;;;;;0.23;0.17;;;7.50;99.90;;;;;;20527408;28;20219;-75
2021/03/19 20:17:50;;;;;;;0.47;0.47;;;7.80;99.90;;;;;;20488783;28;20197;-73
2021/03/19 20:28:03;;;;;;;;;;;;;;;;;;;;;
2021/03/19 20:38:39;;;;;;;0.40;0.40;;;8.00;99.90;;;;;;20521562;23;20240;-74
2021/03/19 20:48:43;;;;;;;0.30;0.30;;;7.90;99.90;;;;;;20504442;28;20278;-79
2021/03/19 20:58:49;;;;;;;0.20;0.10;;;8.00;99.90;;;;;;20508953;28;20285;-74
2021/03/19 21:08:52;;;;;;;0.67;0.40;;;7.90;99.90;;;;;;20500538;28;20254;-76
2021/03/19 21:18:56;;;;;;;0.73;0.63;;;7.90;99.90;;;;;;20487108;28;20211;-73
2021/03/19 21:28:58;;;;;;;0.67;0.60;;;7.80;99.90;;;;;;20516449;28;20224;-73
2021/03/19 21:39:02;;;;;;;0.50;0.40;;;8.30;99.90;;;;;;20493039;28;20207;-76
2021/03/19 21:49:05;;;;;;;1.27;1.17;;;8.60;99.90;;;;;;20499370;28;20642;-77
2021/03/19 21:59:09;;;;;;;0.73;0.50;;;8.40;99.90;;;;;;20494503;28;20283;-75
2021/03/19 22:09:12;;;;;;;0.60;0.60;;;8.20;99.90;;;;;;20494854;28;21076;-74
2021/03/19 22:19:17;;;;;;;0.20;0.20;;;8.20;99.90;;;;;;20500466;23;20237;-77
2021/03/19 22:29:22;;;;;;;0.20;0.20;;;8.20;99.90;;;;;;20493399;28;20221;-76
2021/03/19 22:39:27;;;;;;;0.30;0.30;;;8.30;99.90;;;;;;20491793;28;20785;-71
2021/03/19 22:49:31;;;;;;;0.30;0.30;;;8.20;99.90;;;;;;20487057;28;20233;-70
2021/03/19 22:59:34;;;;;;;0.20;0.10;;;8.30;99.90;;;;;;20480418;28;20197;-71
2021/03/19 23:09:37;;;;;;;0.20;0.20;;;8.40;99.90;;;;;;20518218;28;20239;-72
2021/03/19 23:19:41;;;;;;;0.20;0.20;;;8.30;99.90;;;;;;20496720;28;20268;-72
2021/03/19 23:29:43;;;;;;;0.20;0.10;;;8.20;99.90;;;;;;20442993;29;20364;-72
2021/03/19 23:39:47;;;;;;;0.67;0.67;;;8.50;99.90;;;;;;20513425;28;20842;-73
2021/03/19 23:49:49;;;;;;;0.53;0.23;;;8.50;99.90;;;;;;20524192;28;20227;-71
2021/03/19 23:59:53;;;;;;;0.20;0.13;;;8.40;99.90;;;;;;20527354;28;20546;-71
